الصفحة الرئيسية
METAR-TAF:

METAR-TAF

مطار :

ماجنكا, مدغشقر

دائرة عرض: 15-40S, خط طول: 046-21E, ارتفاع: 26 متر

مراقبة الطقس الحالي

تاريخ ووقت الإصدار 21 دقيقة قبل الساعة 08:00UTC
ريح 9 عقدة من الشرق/الجنوب الشرقي, الاتجاه يتراوح بين الشرق و الجنوب
درجة الحرارة 33°درجة مئوية
الرطوبة 39%
ضغط 1013 hPa
الرؤية 10 كم أو أكثر
غيوم قليلة على ارتفاع 2000 قدم

METAR: FMNM 260800Z 12009KT 090V180 9999 FEW020 33/17 Q1013 NOSIG

زمن: 11:21 (08:21 UTC)

توقعات

تاريخ ووقت الإصدار 3ساعات و 21 دقيقة قبل الساعة 05:00UTC
التوقعات صالحة من26 الساعة 06 UTC إلى 27 الساعة 06 UTC
ريح 12 عقدة من الجنوب الشرقي
الرؤية 10 كم أو أكثر
غيوم قليلة على ارتفاع 2000 قدم
أصبح
من 26 الساعة 10 UTC إلى 26 الساعة 12 UTC
ريح 10 عقدة من الشمال الغربي
غيوم قليلة على ارتفاع 2000 قدم, مزنة ركامية.
أصبح
من 26 الساعة 18 UTC إلى 26 الساعة 20 UTC
ريح 5 عقدة من الشرق
غيوم قليلة على ارتفاع 2000 قدم

TAF: FMNM 260500Z 2606/2706 14012KT 9999 FEW020 BECMG 2610/2612 32010KT FEW020CB BECMG 2618/2620 10005KT FEW020

أرصاد الطقس والتوقعات من أكثر من 4000 مطار (تقارير الطقس للمطار METAR والتنبؤ بالطقس بالمطارTAF).

المحطات المتاحة هي النقط الصفراء والحمراء على الخريطة.

حرك المؤشر فوق النقطة لمعرفة اسم المحطة.

ثم انقر لمعرفة أرصاد وتوقعات الطقس.

لتغيير الخارطة: اضغط على الأزرار الخضراء مع رمز الصليب الأسود للتكبير. على الزر الأخضر مع شرطة للتصغير، أو على الأسهم الخضراء للخرائط المجاورة.


METAR-TAF: